createdAt,value
2019-05-30T00:02:13.257Z,31.60
2019-05-30T00:05:08.273Z,31.60
2019-05-30T00:08:04.887Z,31.60
2019-05-30T00:11:00.621Z,31.50
2019-05-30T00:13:56.627Z,31.60
2019-05-30T00:16:51.601Z,31.60
2019-05-30T00:19:47.656Z,31.60
2019-05-30T00:22:43.266Z,31.60
2019-05-30T00:25:38.286Z,31.60
2019-05-30T00:28:33.811Z,31.60
2019-05-30T00:31:29.918Z,31.50
2019-05-30T00:34:24.639Z,31.60
2019-05-30T00:37:20.547Z,31.60
2019-05-30T00:40:16.484Z,31.60
2019-05-30T00:43:12.006Z,31.60
2019-05-30T00:46:06.886Z,31.60
2019-05-30T00:49:04.423Z,31.60
2019-05-30T00:52:02.653Z,31.60
2019-05-30T00:54:58.462Z,31.60
2019-05-30T00:57:53.779Z,31.60
2019-05-30T01:00:48.568Z,31.60
2019-05-30T01:03:44.381Z,31.70
2019-05-30T01:06:41.138Z,31.70
2019-05-30T01:09:38.551Z,31.70
2019-05-30T01:12:33.751Z,31.70
2019-05-30T01:15:29.499Z,31.70
2019-05-30T01:18:24.536Z,31.70
2019-05-30T01:21:21.111Z,31.70
2019-05-30T01:24:17.023Z,31.80
2019-05-30T01:27:13.218Z,31.80
2019-05-30T01:30:10.442Z,31.80
2019-05-30T01:33:08.064Z,31.80
2019-05-30T01:36:05.833Z,31.80
2019-05-30T01:39:03.818Z,31.90
2019-05-30T01:42:01.744Z,31.90
2019-05-30T01:45:00.210Z,31.90
2019-05-30T01:48:00.133Z,31.90
2019-05-30T01:51:00.319Z,31.90
2019-05-30T01:53:58.879Z,32.00
2019-05-30T01:56:54.399Z,32.00
2019-05-30T01:59:50.018Z,32.00
2019-05-30T02:02:45.813Z,32.00
2019-05-30T02:05:45.169Z,32.00
2019-05-30T02:08:40.410Z,32.10
2019-05-30T02:11:37.875Z,32.10
2019-05-30T02:14:32.426Z,32.10
2019-05-30T02:17:28.986Z,32.10
2019-05-30T02:20:24.803Z,32.20
2019-05-30T02:23:20.182Z,32.20
2019-05-30T02:26:16.358Z,32.20
2019-05-30T02:29:11.582Z,32.30
2019-05-30T02:32:09.001Z,32.30
2019-05-30T02:35:05.382Z,32.30
2019-05-30T02:38:00.930Z,32.40
2019-05-30T02:40:56.343Z,32.40
2019-05-30T02:43:52.247Z,32.50
2019-05-30T02:46:49.449Z,32.50
2019-05-30T02:49:45.562Z,32.50
2019-05-30T02:52:41.442Z,32.50
2019-05-30T02:55:36.994Z,32.60
2019-05-30T02:58:32.927Z,32.60
2019-05-30T03:01:27.920Z,32.60
2019-05-30T03:04:23.270Z,32.70
2019-05-30T03:07:20.924Z,32.70
2019-05-30T03:10:17.309Z,32.80
2019-05-30T03:13:13.193Z,32.80
2019-05-30T03:16:11.172Z,32.80
2019-05-30T03:19:08.554Z,32.90
2019-05-30T03:22:09.498Z,33.00
2019-05-30T03:25:07.965Z,33.00
2019-05-30T03:28:05.336Z,33.10
2019-05-30T03:31:09.204Z,33.10
2019-05-30T03:34:08.296Z,33.10
2019-05-30T03:37:04.926Z,33.20
2019-05-30T03:39:59.657Z,33.30
2019-05-30T03:42:55.800Z,33.30
2019-05-30T03:45:53.160Z,33.40
2019-05-30T03:48:52.097Z,33.40
2019-05-30T03:51:48.664Z,33.50
2019-05-30T03:54:44.752Z,33.50
2019-05-30T03:57:44.152Z,33.60
2019-05-30T04:00:50.919Z,33.60
2019-05-30T04:03:54.067Z,33.70
2019-05-30T04:06:54.075Z,33.70
2019-05-30T04:09:54.060Z,33.70
2019-05-30T04:13:25.134Z,33.80
2019-05-30T04:16:20.096Z,33.80
2019-05-30T04:19:17.143Z,33.90
2019-05-30T04:22:13.011Z,33.90
2019-05-30T04:25:08.603Z,34.00
2019-05-30T04:28:04.613Z,34.10
2019-05-30T04:30:59.081Z,34.10
2019-05-30T04:33:54.161Z,34.20
2019-05-30T04:36:53.159Z,34.30
2019-05-30T04:39:45.874Z,34.40
2019-05-30T04:42:44.809Z,34.50
2019-05-30T04:45:42.826Z,34.50
2019-05-30T04:48:44.101Z,34.60
2019-05-30T04:51:39.177Z,34.60
2019-05-30T04:54:33.701Z,34.70
2019-05-30T04:57:29.085Z,34.70
2019-05-30T05:00:27.028Z,34.80
2019-05-30T05:03:44.506Z,34.80
2019-05-30T05:06:21.963Z,34.90
2019-05-30T05:09:18.252Z,35.00
2019-05-30T05:12:14.099Z,35.10
2019-05-30T05:15:14.787Z,35.10
2019-05-30T05:18:12.947Z,35.20
2019-05-30T05:21:14.649Z,35.30
2019-05-30T05:24:15.428Z,35.40
2019-05-30T05:27:19.675Z,35.50
2019-05-30T05:30:20.192Z,35.60
2019-05-30T05:33:20.566Z,35.70
2019-05-30T05:36:44.816Z,35.80
2019-05-30T05:40:39.680Z,35.80
2019-05-30T05:44:43.216Z,35.90
2019-05-30T05:48:37.573Z,36.00
2019-05-30T05:51:59.755Z,36.10
2019-05-30T05:55:21.069Z,36.30
2019-05-30T05:58:26.995Z,36.30
2019-05-30T06:01:59.987Z,36.40
2019-05-30T06:05:08.431Z,36.50
2019-05-30T06:08:55.148Z,36.50
2019-05-30T06:12:01.293Z,36.60
2019-05-30T06:14:58.045Z,36.70
2019-05-30T06:18:24.210Z,36.80
2019-05-30T06:21:28.495Z,36.90
2019-05-30T06:24:23.789Z,36.90
2019-05-30T06:27:32.549Z,37.00
2019-05-30T06:30:33.595Z,37.10
2019-05-30T06:33:29.238Z,37.20
2019-05-30T06:36:44.622Z,37.30
2019-05-30T06:40:08.612Z,37.40
2019-05-30T06:43:10.977Z,37.40
2019-05-30T06:46:20.073Z,37.50
2019-05-30T06:52:29.359Z,37.60
2019-05-30T06:55:25.231Z,37.70
2019-05-30T06:58:39.185Z,37.80
2019-05-30T07:01:21.831Z,37.90
2019-05-30T07:04:17.231Z,37.90
2019-05-30T07:07:17.464Z,38.00
2019-05-30T07:10:14.299Z,38.00
2019-05-30T07:13:13.180Z,38.10
2019-05-30T07:16:09.026Z,38.20
2019-05-30T07:19:06.401Z,38.20
2019-05-30T07:22:01.261Z,38.30
2019-05-30T07:24:58.230Z,38.30
2019-05-30T07:27:55.778Z,38.40
2019-05-30T07:30:52.724Z,38.50
2019-05-30T07:33:48.826Z,38.50
2019-05-30T07:36:44.995Z,38.60
2019-05-30T07:39:42.297Z,38.60
2019-05-30T07:42:44.697Z,38.70
2019-05-30T07:45:52.833Z,38.70
2019-05-30T07:48:43.273Z,38.80
2019-05-30T07:51:39.809Z,38.80
2019-05-30T07:54:37.054Z,38.90
2019-05-30T07:57:39.227Z,39.00
2019-05-30T08:00:35.485Z,39.10
2019-05-30T08:03:33.015Z,39.10
2019-05-30T08:06:29.893Z,39.20
2019-05-30T08:09:29.248Z,39.20
2019-05-30T08:12:27.938Z,39.30
2019-05-30T08:15:27.269Z,39.40
2019-05-30T08:18:24.624Z,39.50
2019-05-30T08:21:23.520Z,39.60
2019-05-30T08:24:22.387Z,39.80
2019-05-30T08:27:19.605Z,39.90
2019-05-30T08:30:16.737Z,40.10
2019-05-30T08:33:15.229Z,40.20
2019-05-30T08:36:12.922Z,40.30
2019-05-30T08:39:10.798Z,40.40
2019-05-30T08:42:27.887Z,40.60
2019-05-30T08:45:25.804Z,40.80
2019-05-30T08:48:25.342Z,41.10
2019-05-30T08:51:25.407Z,41.30
2019-05-30T08:54:28.372Z,41.40
2019-05-30T08:57:30.465Z,41.50
2019-05-30T09:00:32.658Z,41.60
2019-05-30T09:03:42.143Z,41.60
2019-05-30T09:06:47.747Z,41.80
2019-05-30T09:09:51.046Z,41.80
2019-05-30T09:13:00.003Z,41.90
2019-05-30T09:16:29.185Z,42.00
2019-05-30T09:19:26.279Z,42.10
2019-05-30T09:22:23.658Z,42.20
2019-05-30T09:25:21.474Z,42.30
2019-05-30T09:28:18.754Z,42.40
2019-05-30T09:31:14.846Z,42.40
2019-05-30T09:34:12.125Z,42.40
2019-05-30T09:37:10.783Z,42.40
2019-05-30T09:40:07.145Z,42.30
2019-05-30T09:43:06.327Z,42.30
2019-05-30T09:46:41.353Z,42.30
2019-05-30T09:49:41.533Z,42.30
2019-05-30T09:52:39.345Z,42.20
2019-05-30T09:55:36.002Z,42.20
2019-05-30T09:58:42.263Z,42.20
2019-05-30T10:01:38.487Z,42.20
2019-05-30T10:04:40.481Z,42.20
2019-05-30T10:07:37.971Z,42.20
2019-05-30T10:10:35.838Z,42.30
2019-05-30T10:13:32.389Z,42.30
2019-05-30T10:16:34.797Z,42.40
2019-05-30T10:19:58.198Z,42.40
2019-05-30T10:22:46.685Z,42.40
2019-05-30T10:25:55.500Z,42.50
2019-05-30T10:29:14.805Z,42.50
2019-05-30T10:32:12.667Z,42.60
2019-05-30T10:35:15.158Z,42.60
2019-05-30T10:38:19.946Z,42.70
2019-05-30T10:41:16.981Z,42.70
2019-05-30T10:44:13.721Z,42.70
2019-05-30T10:47:09.553Z,42.70
2019-05-30T10:50:07.193Z,42.80
2019-05-30T10:53:06.487Z,42.80
2019-05-30T10:56:05.700Z,42.90
2019-05-30T10:59:03.078Z,42.90
2019-05-30T11:02:08.934Z,43.00
2019-05-30T11:05:11.402Z,43.30
2019-05-30T11:08:11.646Z,43.50
2019-05-30T11:11:09.386Z,43.70
2019-05-30T11:14:07.067Z,44.00
2019-05-30T11:20:17.649Z,44.40
2019-05-30T11:23:20.178Z,44.60
2019-05-30T11:26:15.551Z,44.70
2019-05-30T11:29:11.502Z,44.90
2019-05-30T11:32:09.800Z,44.90
2019-05-30T11:35:05.969Z,45.10
2019-05-30T11:38:04.957Z,45.10
2019-05-30T11:41:03.466Z,45.20
2019-05-30T11:44:04.060Z,45.20
2019-05-30T11:47:00.177Z,45.20
2019-05-30T11:49:57.811Z,45.10
2019-05-30T11:52:55.762Z,44.90
2019-05-30T11:55:54.672Z,44.90
2019-05-30T11:58:51.975Z,44.70
2019-05-30T12:01:50.227Z,44.60
2019-05-30T12:04:46.907Z,44.50
2019-05-30T12:07:43.277Z,44.40
2019-05-30T12:10:39.318Z,44.30
2019-05-30T12:13:35.046Z,44.20
2019-05-30T12:16:30.626Z,44.00
2019-05-30T12:19:30.309Z,43.80
2019-05-30T12:22:28.033Z,43.70
2019-05-30T12:25:25.052Z,43.40
2019-05-30T12:28:21.859Z,43.20
2019-05-30T12:31:22.544Z,43.00
2019-05-30T12:34:27.340Z,42.80
2019-05-30T12:37:26.206Z,42.60
2019-05-30T12:40:24.447Z,42.40
2019-05-30T12:43:21.013Z,42.20
2019-05-30T12:46:17.260Z,42.10
2019-05-30T12:49:15.109Z,41.90
2019-05-30T12:52:13.117Z,41.70
2019-05-30T12:55:09.243Z,41.50
2019-05-30T12:58:05.525Z,41.40
2019-05-30T13:01:03.318Z,41.20
2019-05-30T13:03:58.922Z,41.10
2019-05-30T13:06:56.456Z,40.90
2019-05-30T13:09:53.255Z,40.80
2019-05-30T13:12:50.325Z,40.70
2019-05-30T13:15:46.710Z,40.60
2019-05-30T13:18:42.510Z,40.50
2019-05-30T13:21:39.118Z,40.40
2019-05-30T13:24:33.424Z,40.30
2019-05-30T13:27:28.167Z,40.20
2019-05-30T13:30:24.944Z,40.10
2019-05-30T13:33:23.393Z,40.00
2019-05-30T13:36:19.961Z,39.90
2019-05-30T13:39:16.450Z,39.80
